Time;durP1;ratioP1;P1;durP2;ratioP2;P2;SDS_P1;SDS_P2;PMS_P1;PMS_P2;Temp;Humidity;BMP_temperature;BMP_pressure;BME280_temperature;BME280_humidity;BME280_pressure;Samples;Min_cycle;Max_cycle;Signal;HPM_P1;HPM_P2
2023/05/20 00:00:25;;;;;;;12.77;6.43;;;10.10;99.90;;;;;;4978490;28;20041;-83
2023/05/20 00:02:50;;;;;;;16.23;6.80;;;10.10;99.90;;;;;;4978650;28;20398;-83
2023/05/20 00:05:16;;;;;;;16.77;7.68;;;10.20;99.90;;;;;;4975018;28;20049;-83
2023/05/20 00:07:41;;;;;;;13.40;7.47;;;10.10;99.90;;;;;;4974721;28;20045;-83
2023/05/20 00:10:07;;;;;;;13.23;6.93;;;10.10;99.90;;;;;;4978696;28;20041;-83
2023/05/20 00:12:34;;;;;;;15.85;6.95;;;10.00;99.90;;;;;;4978469;28;20046;-83
2023/05/20 00:15:00;;;;;;;13.63;7.05;;;9.90;99.90;;;;;;4979065;28;20132;-83
2023/05/20 00:17:27;;;;;;;14.15;6.85;;;9.90;99.90;;;;;;4963234;28;20042;-83
2023/05/20 00:19:53;;;;;;;16.80;7.30;;;9.90;99.90;;;;;;4975788;28;20510;-83
2023/05/20 00:22:19;;;;;;;13.63;7.45;;;9.90;99.90;;;;;;4995859;28;20042;-82
2023/05/20 00:24:45;;;;;;;15.40;7.15;;;9.80;99.90;;;;;;4977511;28;20425;-82
2023/05/20 00:27:10;;;;;;;13.85;7.43;;;9.80;99.90;;;;;;4972578;28;20053;-83
2023/05/20 00:29:36;;;;;;;12.77;7.45;;;9.80;99.90;;;;;;4995946;28;20164;-83
2023/05/20 00:32:02;;;;;;;16.75;7.38;;;9.70;99.90;;;;;;4991190;28;20050;-83
2023/05/20 00:34:27;;;;;;;13.45;7.03;;;9.70;99.90;;;;;;4992102;28;20320;-83
2023/05/20 00:36:53;;;;;;;12.30;7.28;;;9.70;99.90;;;;;;4960728;28;20323;-82
2023/05/20 00:39:21;;;;;;;18.70;8.02;;;9.70;99.90;;;;;;4976129;28;20170;-82
2023/05/20 00:41:47;;;;;;;12.98;7.38;;;9.60;99.90;;;;;;4964842;28;20108;-82
2023/05/20 00:44:12;;;;;;;15.98;7.60;;;9.50;99.90;;;;;;4975601;28;20038;-82
2023/05/20 00:46:38;;;;;;;15.35;7.38;;;9.60;99.90;;;;;;4954270;28;20042;-83
2023/05/20 00:49:04;;;;;;;13.65;7.75;;;9.70;99.90;;;;;;4978803;28;20046;-82
2023/05/20 00:51:30;;;;;;;16.27;7.85;;;9.70;99.90;;;;;;4974747;28;20038;-83
2023/05/20 00:53:56;;;;;;;19.17;8.90;;;9.70;99.90;;;;;;4990132;28;20030;-83
2023/05/20 00:56:22;;;;;;;12.27;7.68;;;9.70;99.90;;;;;;4992319;28;20038;-83
2023/05/20 00:58:49;;;;;;;13.88;7.65;;;9.70;99.90;;;;;;4959352;28;20035;-83
2023/05/20 01:01:15;;;;;;;14.70;8.15;;;9.60;99.90;;;;;;4984753;28;20074;-82
2023/05/20 01:03:40;;;;;;;14.38;7.55;;;9.50;99.90;;;;;;4950347;28;20047;-82
2023/05/20 01:06:06;;;;;;;14.50;7.68;;;9.40;99.90;;;;;;4969978;28;20050;-82
2023/05/20 01:08:33;;;;;;;17.65;8.02;;;9.50;99.90;;;;;;4971509;28;20141;-83
2023/05/20 01:11:14;;;;;;;14.20;7.63;;;9.40;99.90;;;;;;4973326;28;20042;-82
2023/05/20 01:13:47;;;;;;;12.98;8.10;;;9.30;99.90;;;;;;4983068;28;20461;-82
2023/05/20 01:16:15;;;;;;;14.40;7.80;;;9.20;99.90;;;;;;4978557;28;20076;-82
2023/05/20 01:18:42;;;;;;;16.73;8.18;;;9.20;99.90;;;;;;4990691;28;20038;-82
2023/05/20 01:21:13;;;;;;;13.88;7.90;;;9.20;99.90;;;;;;4989329;28;20570;-82
2023/05/20 01:23:40;;;;;;;15.00;8.30;;;9.20;99.90;;;;;;4976517;28;20506;-82
2023/05/20 01:26:07;;;;;;;15.80;8.13;;;9.20;99.90;;;;;;4976044;28;20049;-82
2023/05/20 01:28:35;;;;;;;14.07;7.97;;;9.30;99.90;;;;;;4972767;28;20047;-83
2023/05/20 01:31:04;;;;;;;17.33;7.95;;;9.20;99.90;;;;;;4975165;28;20199;-82
2023/05/20 01:33:30;;;;;;;14.50;8.23;;;9.30;99.90;;;;;;4961124;28;20081;-82
2023/05/20 01:35:58;;;;;;;18.38;8.65;;;9.40;99.90;;;;;;4991208;28;20829;-82
2023/05/20 01:38:24;;;;;;;16.13;7.88;;;9.30;99.90;;;;;;4989105;28;20057;-82
2023/05/20 01:40:52;;;;;;;13.88;7.72;;;9.40;99.90;;;;;;4989167;28;20483;-82
2023/05/20 01:43:17;;;;;;;17.58;9.18;;;9.40;99.90;;;;;;4957947;28;20046;-82
2023/05/20 01:45:43;;;;;;;13.57;8.40;;;9.40;99.90;;;;;;4971831;28;20046;-83
2023/05/20 01:48:12;;;;;;;12.48;7.88;;;9.40;99.90;;;;;;4976949;28;20526;-83
2023/05/20 01:50:38;;;;;;;13.63;8.05;;;9.40;99.90;;;;;;4990765;28;20506;-83
2023/05/20 01:53:08;;;;;;;14.02;8.35;;;9.40;99.90;;;;;;4959152;28;20089;-83
2023/05/20 01:55:36;;;;;;;14.20;7.70;;;9.40;99.90;;;;;;4976441;28;20069;-83
2023/05/20 01:58:02;;;;;;;13.13;7.60;;;9.40;99.90;;;;;;4991049;28;20129;-83
2023/05/20 02:00:28;;;;;;;12.68;7.97;;;9.40;99.90;;;;;;4957134;28;20060;-82
2023/05/20 02:02:53;;;;;;;16.48;7.70;;;9.40;99.90;;;;;;4958429;28;20030;-83
2023/05/20 02:05:19;;;;;;;14.73;7.88;;;9.50;99.90;;;;;;4956208;28;20042;-83
2023/05/20 02:07:45;;;;;;;11.65;7.85;;;9.50;99.90;;;;;;4975578;28;20072;-83
2023/05/20 02:10:10;;;;;;;13.90;7.22;;;9.40;99.90;;;;;;4956285;28;20038;-84
2023/05/20 02:12:36;;;;;;;10.65;7.15;;;9.40;99.90;;;;;;4988660;28;20059;-83
2023/05/20 02:15:03;;;;;;;11.82;6.88;;;9.40;99.90;;;;;;4975164;28;20063;-83
2023/05/20 02:17:28;;;;;;;12.45;7.63;;;9.40;99.90;;;;;;4973251;28;20453;-83
2023/05/20 02:19:54;;;;;;;14.82;6.90;;;9.50;99.90;;;;;;4984308;28;20137;-83
2023/05/20 02:22:20;;;;;;;12.65;7.55;;;9.50;99.90;;;;;;4976905;28;20808;-82
2023/05/20 02:24:45;;;;;;;13.10;7.45;;;9.40;99.90;;;;;;4972024;28;20513;-83
2023/05/20 02:27:11;;;;;;;13.20;7.32;;;9.50;99.90;;;;;;4968826;28;20366;-83
2023/05/20 02:29:37;;;;;;;11.05;7.63;;;9.50;99.90;;;;;;4971230;28;20089;-83
2023/05/20 02:32:03;;;;;;;12.00;7.18;;;9.50;99.90;;;;;;4968189;28;20045;-83
2023/05/20 02:34:30;;;;;;;10.07;6.72;;;9.50;99.90;;;;;;4952959;28;20109;-82
2023/05/20 02:36:56;;;;;;;12.30;6.90;;;9.50;99.90;;;;;;4968825;28;20247;-83
2023/05/20 02:39:21;;;;;;;9.75;6.20;;;9.50;99.90;;;;;;4974914;28;20041;-83
2023/05/20 02:41:47;;;;;;;9.98;6.65;;;9.50;99.90;;;;;;4974186;28;20116;-83
2023/05/20 02:44:13;;;;;;;11.48;6.90;;;9.50;99.90;;;;;;4974850;28;20042;-83
2023/05/20 02:46:39;;;;;;;12.00;7.22;;;9.50;99.90;;;;;;4970134;28;20475;-83
2023/05/20 02:49:04;;;;;;;12.10;7.45;;;9.40;99.90;;;;;;4969689;28;20052;-82
2023/05/20 02:51:33;;;;;;;10.30;6.22;;;9.50;99.90;;;;;;4955961;28;20178;-83
2023/05/20 02:54:01;;;;;;;13.48;7.78;;;9.40;99.90;;;;;;4994354;28;20053;-83
2023/05/20 02:56:27;;;;;;;12.20;6.78;;;9.40;99.90;;;;;;4965485;28;20697;-82
2023/05/20 02:58:53;;;;;;;11.77;7.07;;;9.40;99.90;;;;;;4973448;28;20078;-83
2023/05/20 03:01:19;;;;;;;11.52;6.10;;;9.40;99.90;;;;;;4968753;28;20074;-83
2023/05/20 03:03:44;;;;;;;14.60;6.78;;;9.40;99.90;;;;;;4954465;28;20104;-83
2023/05/20 03:06:13;;;;;;;12.10;7.10;;;9.40;99.90;;;;;;4976383;28;20374;-83
2023/05/20 03:08:42;;;;;;;12.23;7.10;;;9.40;99.90;;;;;;4959522;28;20104;-83
2023/05/20 03:11:07;;;;;;;12.38;6.70;;;9.40;99.90;;;;;;4990111;28;20062;-83
2023/05/20 03:13:33;;;;;;;12.68;6.38;;;9.40;99.90;;;;;;4989620;28;20038;-83
2023/05/20 03:16:00;;;;;;;12.25;6.63;;;9.40;99.90;;;;;;4985858;28;20064;-83
2023/05/20 03:18:25;;;;;;;9.05;6.60;;;9.40;99.90;;;;;;4973919;28;20424;-83
2023/05/20 03:20:53;;;;;;;9.80;6.15;;;9.40;99.90;;;;;;4969703;28;20124;-83
2023/05/20 03:23:21;;;;;;;11.05;6.82;;;9.40;99.90;;;;;;4992151;28;20262;-83
2023/05/20 03:25:47;;;;;;;10.45;6.20;;;9.40;99.90;;;;;;4976999;28;20617;-83
2023/05/20 03:28:12;;;;;;;8.88;5.45;;;9.40;99.90;;;;;;4973028;28;20157;-83
2023/05/20 03:30:38;;;;;;;10.82;5.68;;;9.40;99.90;;;;;;4987430;28;20050;-83
2023/05/20 03:33:04;;;;;;;9.57;5.50;;;9.40;99.90;;;;;;4976109;28;20030;-83
2023/05/20 03:35:30;;;;;;;9.73;5.47;;;9.40;99.90;;;;;;4982508;28;20457;-82
2023/05/20 03:37:57;;;;;;;9.55;5.70;;;9.40;99.90;;;;;;4995424;28;20034;-83
2023/05/20 03:40:25;;;;;;;11.52;5.82;;;9.50;99.90;;;;;;4980684;28;20365;-83
2023/05/20 03:42:51;;;;;;;10.20;4.72;;;9.50;99.90;;;;;;4992972;28;20569;-82
2023/05/20 03:45:16;;;;;;;15.85;5.40;;;9.50;99.90;;;;;;4957969;28;20063;-83
2023/05/20 03:47:42;;;;;;;11.40;5.10;;;9.50;99.90;;;;;;4979442;28;20056;-82
2023/05/20 03:50:08;;;;;;;7.50;4.63;;;9.50;99.90;;;;;;4958787;28;20553;-83
2023/05/20 03:52:34;;;;;;;10.05;4.68;;;9.50;99.90;;;;;;4972136;28;20042;-83
2023/05/20 03:54:59;;;;;;;7.55;4.93;;;9.60;99.90;;;;;;4995170;28;20045;-83
2023/05/20 03:57:25;;;;;;;8.07;4.60;;;9.60;99.90;;;;;;4975252;28;20057;-83
2023/05/20 03:59:51;;;;;;;7.50;4.70;;;9.60;99.90;;;;;;4977344;28;20042;-83
2023/05/20 04:02:17;;;;;;;6.65;4.32;;;9.70;99.90;;;;;;4995302;28;20042;-83
2023/05/20 04:04:43;;;;;;;8.88;4.55;;;9.80;99.90;;;;;;4993111;28;20053;-83
2023/05/20 04:07:09;;;;;;;8.38;4.25;;;9.90;99.90;;;;;;4975139;28;20443;-82
2023/05/20 04:09:35;;;;;;;7.00;4.28;;;9.90;99.90;;;;;;4981551;28;20046;-83
2023/05/20 04:12:02;;;;;;;7.93;4.28;;;10.00;99.90;;;;;;4990405;28;20136;-83
2023/05/20 04:14:27;;;;;;;6.43;3.90;;;10.00;99.90;;;;;;4979100;28;20460;-83
2023/05/20 04:16:55;;;;;;;5.57;3.58;;;10.10;99.90;;;;;;4955752;28;20145;-83
2023/05/20 04:19:22;;;;;;;7.85;3.70;;;10.10;99.90;;;;;;4985628;28;20566;-83
2023/05/20 04:21:48;;;;;;;6.53;4.10;;;10.20;99.90;;;;;;4994225;28;20061;-83
2023/05/20 04:24:14;;;;;;;8.00;3.60;;;10.30;99.90;;;;;;4976172;28;20505;-84
2023/05/20 04:26:40;;;;;;;4.65;3.42;;;10.30;99.90;;;;;;4987810;28;20054;-83
2023/05/20 04:29:05;;;;;;;5.03;3.40;;;10.40;99.90;;;;;;4982238;28;20202;-83
2023/05/20 04:31:33;;;;;;;6.18;3.60;;;10.40;99.90;;;;;;4975601;28;20996;-83
2023/05/20 04:33:59;;;;;;;5.53;3.63;;;10.50;99.90;;;;;;4979563;28;20111;-83
2023/05/20 04:36:27;;;;;;;6.20;3.58;;;10.50;99.90;;;;;;4973982;28;20034;-83
2023/05/20 04:38:56;;;;;;;6.07;3.05;;;10.60;99.90;;;;;;4958632;28;20116;-83
2023/05/20 04:41:23;;;;;;;5.47;3.08;;;10.70;99.90;;;;;;4978317;28;20034;-83
2023/05/20 04:43:49;;;;;;;6.22;3.22;;;10.80;99.90;;;;;;4989781;28;20567;-82
2023/05/20 04:46:15;;;;;;;6.43;3.15;;;10.90;99.90;;;;;;4992216;28;20046;-83
2023/05/20 04:48:42;;;;;;;5.53;2.95;;;11.00;99.90;;;;;;4972885;28;20063;-83
2023/05/20 04:51:08;;;;;;;4.07;2.65;;;11.10;99.90;;;;;;4990935;28;20042;-84
2023/05/20 04:53:34;;;;;;;5.57;2.90;;;11.20;99.90;;;;;;4979384;28;20040;-83
2023/05/20 04:56:00;;;;;;;4.15;2.40;;;11.10;99.90;;;;;;4977901;28;20034;-83
2023/05/20 04:58:28;;;;;;;4.13;2.40;;;11.10;99.90;;;;;;4990907;28;20409;-83
2023/05/20 05:00:54;;;;;;;3.88;2.30;;;11.20;99.90;;;;;;4976069;28;21243;-83
2023/05/20 05:03:19;;;;;;;4.25;2.30;;;11.20;99.90;;;;;;4978118;28;20035;-84
2023/05/20 05:05:45;;;;;;;4.50;2.28;;;11.20;99.90;;;;;;4959531;28;20046;-83
2023/05/20 05:08:11;;;;;;;5.03;2.47;;;11.30;99.90;;;;;;4975123;28;20106;-83
2023/05/20 05:10:37;;;;;;;5.03;2.50;;;11.40;99.90;;;;;;4977581;28;20134;-83
2023/05/20 05:13:02;;;;;;;5.47;2.33;;;11.50;99.90;;;;;;4970848;28;20055;-83
2023/05/20 05:15:28;;;;;;;4.72;2.38;;;11.50;99.90;;;;;;4972573;28;20627;-83
2023/05/20 05:17:54;;;;;;;3.83;2.30;;;11.60;99.90;;;;;;4978188;28;20089;-83
2023/05/20 05:20:20;;;;;;;7.22;2.45;;;11.70;99.90;;;;;;4970427;28;20039;-83
2023/05/20 05:22:46;;;;;;;5.25;2.38;;;11.80;99.90;;;;;;4974272;28;20049;-83
2023/05/20 05:25:12;;;;;;;4.15;2.33;;;11.80;99.90;;;;;;4976060;28;20046;-83
2023/05/20 05:27:39;;;;;;;3.15;2.30;;;11.90;99.90;;;;;;4971089;28;20398;-83
2023/05/20 05:30:06;;;;;;;3.90;2.20;;;11.90;99.90;;;;;;4990941;28;20046;-83
2023/05/20 05:32:32;;;;;;;2.80;2.00;;;12.00;99.90;;;;;;4987580;28;20133;-83
2023/05/20 05:34:58;;;;;;;4.32;2.35;;;12.10;99.90;;;;;;4960299;28;20066;-83
2023/05/20 05:37:24;;;;;;;4.05;1.83;;;12.20;99.90;;;;;;4955726;28;20588;-82
2023/05/20 05:39:50;;;;;;;6.13;2.42;;;12.40;99.90;;;;;;4993972;28;20042;-82
2023/05/20 05:42:18;;;;;;;4.38;2.20;;;12.80;99.90;;;;;;4976455;28;20053;-83
2023/05/20 05:44:44;;;;;;;4.63;2.15;;;13.10;99.90;;;;;;4993279;28;20445;-83
2023/05/20 05:47:10;;;;;;;3.22;2.10;;;13.30;99.90;;;;;;4956971;28;20106;-83
2023/05/20 05:49:36;;;;;;;3.35;1.88;;;13.50;99.90;;;;;;4991625;28;20069;-83
2023/05/20 05:52:02;;;;;;;4.15;2.00;;;13.60;99.90;;;;;;4993449;28;20490;-83
2023/05/20 05:54:27;;;;;;;3.35;1.80;;;13.60;99.90;;;;;;4980300;28;20405;-83
2023/05/20 05:56:55;;;;;;;3.03;1.80;;;13.60;99.90;;;;;;4975159;28;20433;-85
2023/05/20 05:59:21;;;;;;;3.00;1.80;;;13.50;99.90;;;;;;4959165;28;20042;-83
2023/05/20 06:01:46;;;;;;;3.17;1.80;;;13.60;99.90;;;;;;4977631;28;20393;-83
2023/05/20 06:04:12;;;;;;;3.35;1.70;;;13.60;99.90;;;;;;4959201;28;20342;-83
2023/05/20 06:06:40;;;;;;;3.78;2.08;;;13.60;99.90;;;;;;4976427;28;20081;-83
2023/05/20 06:09:06;;;;;;;4.85;2.03;;;13.50;99.90;;;;;;4994514;28;20132;-83
2023/05/20 06:11:35;;;;;;;4.95;1.67;;;13.60;99.90;;;;;;4982595;28;20058;-83
2023/05/20 06:14:01;;;;;;;3.72;1.90;;;13.60;99.90;;;;;;4988368;28;20504;-84
2023/05/20 06:16:27;;;;;;;2.65;1.80;;;13.70;99.90;;;;;;4989541;28;20561;-83
2023/05/20 06:18:55;;;;;;;5.28;1.92;;;13.70;99.90;;;;;;4990292;28;20069;-83
2023/05/20 06:21:22;;;;;;;3.78;1.60;;;13.70;1.00;;;;;;4977688;28;20046;-82
2023/05/20 06:23:48;;;;;;;3.90;1.50;;;13.80;99.90;;;;;;4974312;28;20470;-84
2023/05/20 06:26:17;;;;;;;2.25;1.65;;;13.70;1.00;;;;;;4988073;28;20046;-84
2023/05/20 06:28:42;;;;;;;2.25;1.65;;;13.60;99.90;;;;;;4976642;28;20050;-83
2023/05/20 06:31:08;;;;;;;3.47;1.70;;;13.60;99.90;;;;;;4973192;28;20627;-83
2023/05/20 06:33:34;;;;;;;3.20;1.48;;;13.70;99.90;;;;;;4973460;28;20458;-83
2023/05/20 06:36:05;;;;;;;5.43;1.70;;;13.70;99.90;;;;;;4977315;28;20039;-83
2023/05/20 06:38:33;;;;;;;3.63;1.75;;;13.80;99.90;;;;;;4977714;28;20125;-83
2023/05/20 06:40:59;;;;;;;3.53;1.98;;;14.00;1.00;;;;;;4987940;28;20523;-84
2023/05/20 06:43:24;;;;;;;3.30;1.65;;;13.90;99.90;;;;;;4974796;28;20049;-83
2023/05/20 06:45:50;;;;;;;3.80;1.88;;;13.80;1.00;;;;;;4977901;28;20069;-83
2023/05/20 06:48:16;;;;;;;6.55;1.83;;;13.90;99.90;;;;;;4974721;28;20067;-83
2023/05/20 06:50:41;;;;;;;4.95;1.67;;;13.90;99.90;;;;;;4975111;28;20196;-83
2023/05/20 06:53:07;;;;;;;3.85;1.80;;;13.90;1.00;;;;;;4974577;28;20520;-83
2023/05/20 06:55:33;;;;;;;5.40;2.20;;;13.70;99.90;;;;;;4992975;28;20113;-83
2023/05/20 06:57:59;;;;;;;4.10;1.70;;;14.00;99.90;;;;;;4970324;28;20042;-83
2023/05/20 07:00:25;;;;;;;3.47;1.50;;;14.10;99.90;;;;;;4985318;28;20501;-83
2023/05/20 07:02:50;;;;;;;2.83;1.60;;;14.20;99.90;;;;;;4991314;28;20046;-83
2023/05/20 07:05:16;;;;;;;4.10;1.80;;;14.20;99.90;;;;;;4953989;28;20042;-83
2023/05/20 07:07:41;;;;;;;2.60;1.90;;;14.20;99.90;;;;;;4976044;28;20457;-83
2023/05/20 07:10:08;;;;;;;3.17;1.63;;;14.10;1.00;;;;;;4990693;28;20050;-83
2023/05/20 07:12:33;;;;;;;3.38;1.55;;;14.10;99.90;;;;;;4975432;28;20054;-83
2023/05/20 07:15:00;;;;;;;3.97;1.75;;;14.20;1.00;;;;;;4958509;28;20517;-83
2023/05/20 07:17:28;;;;;;;2.67;1.48;;;14.20;99.90;;;;;;4976293;28;20060;-84
2023/05/20 07:19:57;;;;;;;2.88;1.70;;;14.50;1.00;;;;;;4957907;28;20113;-84
2023/05/20 07:22:23;;;;;;;5.70;1.77;;;14.60;99.90;;;;;;4974602;28;20046;-84
2023/05/20 07:24:48;;;;;;;2.30;1.60;;;14.70;1.00;;;;;;4977024;28;20096;-84
2023/05/20 07:27:14;;;;;;;5.55;1.67;;;14.80;99.90;;;;;;4956302;28;20252;-83
2023/05/20 07:29:40;;;;;;;2.45;1.60;;;14.80;99.90;;;;;;4975561;28;20517;-84
2023/05/20 07:32:07;;;;;;;3.70;1.70;;;14.90;1.00;;;;;;4990379;28;20925;-83
2023/05/20 07:34:33;;;;;;;4.97;1.70;;;14.90;99.90;;;;;;4969350;28;20049;-83
2023/05/20 07:36:58;;;;;;;4.95;1.58;;;15.00;99.90;;;;;;4970358;28;20598;-84
2023/05/20 07:39:25;;;;;;;3.63;1.67;;;15.10;99.90;;;;;;4985405;28;20042;-83
2023/05/20 07:41:50;;;;;;;4.63;1.75;;;15.00;1.00;;;;;;4969637;28;20073;-84
2023/05/20 07:44:17;;;;;;;4.72;2.15;;;15.10;96.90;;;;;;4958120;28;20601;-83
2023/05/20 07:46:44;;;;;;;4.00;1.83;;;15.20;99.90;;;;;;4969446;28;20551;-84
2023/05/20 07:49:10;;;;;;;2.95;1.95;;;15.10;99.90;;;;;;4970040;28;20057;-83
2023/05/20 07:51:38;;;;;;;5.38;1.83;;;15.30;46.30;;;;;;4970525;28;20520;-83
2023/05/20 07:54:05;;;;;;;2.60;1.77;;;15.30;99.90;;;;;;4974652;28;20053;-84
2023/05/20 07:56:32;;;;;;;3.47;1.80;;;15.20;99.90;;;;;;4968638;28;20038;-83
2023/05/20 07:58:58;;;;;;;3.28;1.92;;;15.30;28.30;;;;;;4990677;28;20054;-83
2023/05/20 08:01:27;;;;;;;4.43;2.00;;;15.50;99.90;;;;;;4971139;28;20046;-83
2023/05/20 08:03:53;;;;;;;3.80;1.80;;;15.20;99.90;;;;;;4975453;28;20128;-83
2023/05/20 08:06:20;;;;;;;2.75;1.90;;;15.40;99.90;;;;;;4953503;28;20061;-84
2023/05/20 08:08:46;;;;;;;4.57;2.08;;;15.60;99.90;;;;;;4956215;28;20133;-84
2023/05/20 08:11:12;;;;;;;2.92;1.80;;;15.90;99.90;;;;;;4967715;28;20049;-82
2023/05/20 08:13:38;;;;;;;3.35;1.95;;;15.90;99.90;;;;;;4958198;28;20049;-84
2023/05/20 08:16:05;;;;;;;5.10;1.77;;;16.00;1.00;;;;;;4975370;28;20486;-83
2023/05/20 08:18:32;;;;;;;2.92;1.90;;;16.10;1.00;;;;;;4973000;28;20507;-83
2023/05/20 08:20:58;;;;;;;3.25;1.70;;;16.00;99.90;;;;;;4970664;28;20054;-84
2023/05/20 08:23:24;;;;;;;4.43;1.98;;;16.10;99.90;;;;;;4978466;28;20418;-83
2023/05/20 08:25:53;;;;;;;4.65;2.10;;;16.40;99.90;;;;;;4961164;28;20658;-84
2023/05/20 08:28:19;;;;;;;4.68;2.10;;;16.30;1.00;;;;;;4993763;28;20054;-84
2023/05/20 08:30:46;;;;;;;5.20;2.63;;;16.40;1.00;;;;;;4956289;28;20046;-84
2023/05/20 08:33:12;;;;;;;3.15;2.30;;;16.50;93.40;;;;;;4971092;28;20859;-84
2023/05/20 08:35:39;;;;;;;2.97;1.85;;;16.50;99.90;;;;;;4993128;28;20044;-84
2023/05/20 08:38:05;;;;;;;3.40;2.05;;;16.60;99.90;;;;;;4976575;28;20046;-84
2023/05/20 08:40:34;;;;;;;4.43;2.13;;;16.80;1.00;;;;;;4994326;28;20122;-83
2023/05/20 08:43:00;;;;;;;3.00;2.20;;;16.80;1.00;;;;;;4991430;28;20042;-84
2023/05/20 08:45:29;;;;;;;4.20;2.47;;;16.80;99.90;;;;;;4978826;28;20078;-84
2023/05/20 08:47:54;;;;;;;4.53;2.13;;;17.20;12.70;;;;;;4956606;28;20383;-83
2023/05/20 08:50:21;;;;;;;4.15;2.40;;;17.20;1.00;;;;;;4995403;28;20109;-84
2023/05/20 08:52:50;;;;;;;3.83;2.00;;;17.40;65.60;;;;;;4993612;28;20501;-84
2023/05/20 08:55:52;;;;;;;4.68;2.17;;;17.30;99.90;;;;;;4975784;28;20401;-84
2023/05/20 08:58:18;;;;;;;3.75;2.20;;;17.40;31.40;;;;;;4966762;28;20081;-83
2023/05/20 09:00:44;;;;;;;3.80;2.40;;;17.60;1.00;;;;;;4992122;28;20043;-84
2023/05/20 09:03:10;;;;;;;3.70;2.25;;;17.50;1.00;;;;;;4976490;28;20035;-83
2023/05/20 09:05:35;;;;;;;3.50;2.30;;;17.80;99.90;;;;;;4960790;28;20034;-84
2023/05/20 09:08:11;;;;;;;3.50;2.17;;;17.80;99.90;;;;;;4992930;28;20200;-84
2023/05/20 09:10:40;;;;;;;3.35;2.05;;;17.90;70.70;;;;;;4976179;28;20656;-84
2023/05/20 09:13:07;;;;;;;4.45;2.40;;;18.10;1.00;;;;;;4974680;28;20109;-84
2023/05/20 09:15:34;;;;;;;4.90;2.15;;;18.00;1.00;;;;;;4988067;28;20050;-83
2023/05/20 09:18:01;;;;;;;5.55;2.50;;;18.10;99.90;;;;;;4961865;28;20077;-83
2023/05/20 09:20:31;;;;;;;4.20;2.10;;;17.90;99.90;;;;;;4989514;28;20038;-84
2023/05/20 09:23:01;;;;;;;7.00;2.30;;;18.30;1.00;;;;;;4978010;28;20358;-83
2023/05/20 09:25:30;;;;;;;3.65;2.08;;;18.30;99.90;;;;;;4975420;28;20042;-83
2023/05/20 09:27:56;;;;;;;2.42;1.88;;;18.50;99.90;;;;;;4985458;28;20042;-83
2023/05/20 09:30:24;;;;;;;5.95;2.35;;;18.50;99.90;;;;;;4956572;28;20071;-83
2023/05/20 09:32:57;;;;;;;5.15;2.30;;;18.40;84.60;;;;;;4977932;28;20038;-83
2023/05/20 09:35:25;;;;;;;2.53;2.15;;;18.50;1.00;;;;;;4975724;28;20109;-83
2023/05/20 09:37:57;;;;;;;3.53;2.22;;;18.70;99.90;;;;;;4993038;28;20086;-84
2023/05/20 09:40:26;;;;;;;5.32;2.45;;;18.80;1.00;;;;;;4992585;28;20038;-83
2023/05/20 09:43:25;;;;;;;6.65;2.25;;;19.10;99.90;;;;;;4989189;28;20157;-83
2023/05/20 09:45:51;;;;;;;3.42;2.10;;;19.10;1.00;;;;;;4954612;28;20059;-84
2023/05/20 09:48:17;;;;;;;4.70;2.20;;;18.90;99.90;;;;;;4993492;28;20042;-84
2023/05/20 09:50:42;;;;;;;5.65;2.20;;;18.90;99.90;;;;;;4971103;28;20051;-84
2023/05/20 09:53:09;;;;;;;4.72;2.15;;;19.10;99.90;;;;;;4993121;28;20131;-83
2023/05/20 09:55:38;;;;;;;3.33;2.10;;;19.00;99.90;;;;;;4974133;28;20140;-83
2023/05/20 09:58:04;;;;;;;3.53;2.10;;;19.10;99.90;;;;;;4990112;28;20521;-84
2023/05/20 10:00:34;;;;;;;2.83;1.92;;;18.90;99.90;;;;;;4992372;28;20049;-83
2023/05/20 10:03:00;;;;;;;2.38;1.90;;;19.20;99.90;;;;;;4989913;28;20129;-84
2023/05/20 10:05:37;;;;;;;5.07;2.42;;;19.50;99.90;;;;;;4974334;28;20125;-84
2023/05/20 10:08:21;;;;;;;3.35;2.00;;;19.50;99.90;;;;;;4977786;28;20042;-84
2023/05/20 10:11:11;;;;;;;8.43;2.37;;;19.00;99.90;;;;;;4971759;28;20379;-83
2023/05/20 10:14:00;;;;;;;4.20;2.53;;;19.40;99.90;;;;;;4971366;28;20050;-84
2023/05/20 10:17:01;;;;;;;4.57;2.70;;;19.20;99.90;;;;;;4992680;28;20040;-83
2023/05/20 10:19:31;;;;;;;4.20;2.50;;;19.50;99.90;;;;;;4955405;28;20129;-84
2023/05/20 10:22:01;;;;;;;5.07;2.10;;;19.80;99.90;;;;;;4978218;28;20121;-83
2023/05/20 10:24:34;;;;;;;3.42;2.50;;;20.20;99.90;;;;;;4974063;28;20532;-83
2023/05/20 10:27:02;;;;;;;4.18;2.60;;;20.00;99.90;;;;;;4974993;28;20238;-83
2023/05/20 10:29:28;;;;;;;3.88;2.65;;;19.90;99.90;;;;;;4957997;28;20383;-83
2023/05/20 10:31:54;;;;;;;3.28;2.50;;;19.70;99.90;;;;;;4986672;28;20046;-84
2023/05/20 10:34:21;;;;;;;3.80;2.58;;;19.80;99.90;;;;;;4990184;28;20362;-84
2023/05/20 10:36:53;;;;;;;4.30;2.33;;;20.00;99.90;;;;;;4972247;28;20034;-84
2023/05/20 10:39:26;;;;;;;4.45;2.45;;;20.10;99.90;;;;;;4993091;28;20038;-84
2023/05/20 10:41:51;;;;;;;4.10;2.50;;;20.40;84.50;;;;;;4990584;28;20095;-84
2023/05/20 10:44:17;;;;;;;4.68;2.40;;;20.60;70.40;;;;;;4986627;28;20101;-83
2023/05/20 10:46:43;;;;;;;4.13;2.83;;;21.00;99.90;;;;;;4986685;28;20054;-84
2023/05/20 10:49:19;;;;;;;3.85;2.15;;;20.90;60.10;;;;;;4987440;28;20397;-84
2023/05/20 10:51:45;;;;;;;3.67;2.22;;;20.00;1.00;;;;;;4977751;28;20474;-83
2023/05/20 10:54:12;;;;;;;4.70;2.20;;;20.30;4.20;;;;;;4961486;28;20192;-84
2023/05/20 10:56:50;;;;;;;4.15;2.55;;;20.80;37.90;;;;;;4974625;28;20096;-84
2023/05/20 10:59:16;;;;;;;6.10;2.35;;;20.20;1.00;;;;;;4976896;28;20038;-83
2023/05/20 11:01:42;;;;;;;3.03;2.20;;;20.30;1.00;;;;;;4975779;28;20531;-83
2023/05/20 11:04:08;;;;;;;4.20;2.35;;;20.20;1.00;;;;;;4972844;28;20126;-84
2023/05/20 11:06:34;;;;;;;5.60;2.50;;;21.00;32.70;;;;;;4975816;28;20038;-84
2023/05/20 11:09:06;;;;;;;5.38;2.35;;;21.40;47.80;;;;;;4972574;28;20419;-84
2023/05/20 11:11:32;;;;;;;3.83;2.53;;;21.70;1.00;;;;;;4971533;28;20562;-84
2023/05/20 11:13:59;;;;;;;3.65;2.10;;;21.70;1.00;;;;;;4972599;28;20038;-84
2023/05/20 11:16:25;;;;;;;3.53;2.17;;;21.10;1.00;;;;;;4985260;28;20121;-84
2023/05/20 11:18:51;;;;;;;7.75;2.53;;;21.20;1.00;;;;;;4970928;28;20034;-85
2023/05/20 11:21:18;;;;;;;8.07;2.40;;;20.80;99.90;;;;;;4956280;28;20149;-84
2023/05/20 11:23:44;;;;;;;3.63;2.15;;;21.50;1.00;;;;;;4989022;28;20060;-84
2023/05/20 11:26:10;;;;;;;3.95;2.05;;;21.40;1.00;;;;;;4973341;28;20486;-84
2023/05/20 11:28:35;;;;;;;4.07;2.28;;;21.00;1.00;;;;;;4986437;28;20042;-84
2023/05/20 11:31:01;;;;;;;2.88;2.10;;;21.00;99.90;;;;;;4969426;28;20133;-84
2023/05/20 11:33:29;;;;;;;7.65;2.47;;;21.40;1.00;;;;;;4969810;28;20458;-84
2023/05/20 11:35:56;;;;;;;3.22;1.98;;;21.80;1.00;;;;;;4971083;28;20121;-84
2023/05/20 11:38:22;;;;;;;4.45;2.60;;;21.00;99.90;;;;;;4973655;28;20038;-84
2023/05/20 11:40:53;;;;;;;5.60;2.30;;;20.70;99.90;;;;;;4967065;28;20069;-84
2023/05/20 11:43:22;;;;;;;3.88;2.10;;;20.30;99.90;;;;;;4953924;28;20038;-84
2023/05/20 11:45:54;;;;;;;3.70;2.05;;;21.00;99.90;;;;;;4969400;28;20066;-84
2023/05/20 11:48:20;;;;;;;3.50;1.95;;;21.80;99.90;;;;;;4990686;28;20050;-84
2023/05/20 11:50:47;;;;;;;3.33;2.00;;;22.30;1.00;;;;;;4972456;28;20039;-84
2023/05/20 11:53:18;;;;;;;4.85;2.13;;;22.60;1.00;;;;;;4989982;28;20089;-84
2023/05/20 11:55:53;;;;;;;2.47;1.90;;;22.90;1.00;;;;;;4977121;28;20043;-84
2023/05/20 11:58:21;;;;;;;3.63;1.90;;;23.00;99.90;;;;;;4991397;28;20364;-84
2023/05/20 12:00:47;;;;;;;2.92;1.98;;;22.70;99.90;;;;;;4973867;28;20038;-83
2023/05/20 12:03:12;;;;;;;4.13;1.90;;;22.10;99.90;;;;;;4985648;28;20042;-84
2023/05/20 12:05:38;;;;;;;3.70;1.80;;;22.10;99.90;;;;;;4979835;28;20108;-84
2023/05/20 12:08:05;;;;;;;6.30;2.00;;;22.50;99.90;;;;;;4990870;28;20501;-84
2023/05/20 12:10:30;;;;;;;4.40;1.73;;;22.50;99.90;;;;;;4975399;28;20045;-83
2023/05/20 12:12:57;;;;;;;5.35;1.90;;;21.50;99.90;;;;;;4987655;28;20051;-84
2023/05/20 12:15:23;;;;;;;3.35;1.70;;;22.70;99.90;;;;;;4976845;28;20104;-84
2023/05/20 12:17:50;;;;;;;6.68;2.15;;;21.60;99.90;;;;;;4987730;28;20367;-84
2023/05/20 12:20:17;;;;;;;2.95;2.10;;;21.70;99.90;;;;;;4961345;28;20089;-84
2023/05/20 12:22:44;;;;;;;3.10;1.90;;;21.70;99.90;;;;;;4990166;28;20540;-84
2023/05/20 12:25:12;;;;;;;3.95;2.17;;;21.30;99.90;;;;;;4979654;28;20392;-83
2023/05/20 12:27:37;;;;;;;4.32;2.08;;;21.30;99.90;;;;;;4987641;28;20452;-83
2023/05/20 12:30:04;;;;;;;5.53;1.80;;;21.30;99.90;;;;;;4977090;28;20534;-83
2023/05/20 12:32:29;;;;;;;3.65;2.20;;;21.60;99.90;;;;;;4958745;28;20101;-84
2023/05/20 12:34:55;;;;;;;3.80;2.00;;;21.80;99.90;;;;;;4973255;28;20038;-84
2023/05/20 12:37:21;;;;;;;3.53;1.90;;;21.80;99.90;;;;;;4981831;28;20031;-84
2023/05/20 12:39:47;;;;;;;3.50;2.10;;;21.20;99.90;;;;;;4962321;28;20030;-84
2023/05/20 12:42:12;;;;;;;3.03;2.10;;;21.30;99.90;;;;;;4973301;28;20042;-84
2023/05/20 12:44:38;;;;;;;5.25;1.98;;;21.50;99.90;;;;;;4972870;28;20327;-83
2023/05/20 12:47:08;;;;;;;4.03;2.00;;;21.30;99.90;;;;;;4970672;28;20058;-84